sensor_id;sensor_type;location;lat;lon;timestamp;P1;durP1;ratioP1;P2;durP2;ratioP2
20344;SDS011;10330;48.816;9.278;2024-03-08T00:01:40;29.88;;;14.73;;
20344;SDS011;10330;48.816;9.278;2024-03-08T00:04:07;33.10;;;16.02;;
20344;SDS011;10330;48.816;9.278;2024-03-08T00:06:33;42.40;;;20.83;;
20344;SDS011;10330;48.816;9.278;2024-03-08T00:09:00;31.05;;;16.45;;
20344;SDS011;10330;48.816;9.278;2024-03-08T00:11:29;33.60;;;15.25;;
20344;SDS011;10330;48.816;9.278;2024-03-08T00:13:57;28.90;;;13.80;;
20344;SDS011;10330;48.816;9.278;2024-03-08T00:16:23;29.60;;;14.82;;
20344;SDS011;10330;48.816;9.278;2024-03-08T00:18:49;32.47;;;15.52;;
20344;SDS011;10330;48.816;9.278;2024-03-08T00:21:16;26.80;;;13.75;;
20344;SDS011;10330;48.816;9.278;2024-03-08T00:23:42;30.52;;;15.30;;
20344;SDS011;10330;48.816;9.278;2024-03-08T00:26:09;37.00;;;14.02;;
20344;SDS011;10330;48.816;9.278;2024-03-08T00:28:37;33.08;;;15.05;;
20344;SDS011;10330;48.816;9.278;2024-03-08T00:31:04;30.95;;;14.68;;
20344;SDS011;10330;48.816;9.278;2024-03-08T00:33:50;35.90;;;15.80;;
20344;SDS011;10330;48.816;9.278;2024-03-08T00:36:35;37.67;;;17.58;;
20344;SDS011;10330;48.816;9.278;2024-03-08T00:39:06;31.85;;;14.25;;
20344;SDS011;10330;48.816;9.278;2024-03-08T00:41:33;27.17;;;14.77;;
20344;SDS011;10330;48.816;9.278;2024-03-08T00:44:00;29.17;;;14.80;;
20344;SDS011;10330;48.816;9.278;2024-03-08T00:46:26;27.50;;;14.57;;
20344;SDS011;10330;48.816;9.278;2024-03-08T00:48:54;32.20;;;13.75;;
20344;SDS011;10330;48.816;9.278;2024-03-08T00:51:22;28.77;;;14.63;;
20344;SDS011;10330;48.816;9.278;2024-03-08T00:53:48;29.15;;;13.48;;
20344;SDS011;10330;48.816;9.278;2024-03-08T00:56:14;36.95;;;14.90;;
20344;SDS011;10330;48.816;9.278;2024-03-08T00:58:41;33.63;;;14.70;;
20344;SDS011;10330;48.816;9.278;2024-03-08T01:01:08;27.00;;;14.13;;
20344;SDS011;10330;48.816;9.278;2024-03-08T01:03:35;31.38;;;15.57;;
20344;SDS011;10330;48.816;9.278;2024-03-08T01:06:04;27.88;;;14.43;;
20344;SDS011;10330;48.816;9.278;2024-03-08T01:08:34;32.30;;;14.82;;
20344;SDS011;10330;48.816;9.278;2024-03-08T01:11:04;27.80;;;14.70;;
20344;SDS011;10330;48.816;9.278;2024-03-08T01:13:30;28.35;;;14.65;;
20344;SDS011;10330;48.816;9.278;2024-03-08T01:15:57;37.90;;;15.75;;
20344;SDS011;10330;48.816;9.278;2024-03-08T01:18:24;30.90;;;14.15;;
20344;SDS011;10330;48.816;9.278;2024-03-08T01:20:50;27.67;;;13.52;;
20344;SDS011;10330;48.816;9.278;2024-03-08T01:23:17;27.23;;;14.52;;
20344;SDS011;10330;48.816;9.278;2024-03-08T01:25:43;32.67;;;15.95;;
20344;SDS011;10330;48.816;9.278;2024-03-08T01:28:10;31.67;;;14.98;;
20344;SDS011;10330;48.816;9.278;2024-03-08T01:30:36;33.53;;;15.27;;
20344;SDS011;10330;48.816;9.278;2024-03-08T01:33:03;32.97;;;15.07;;
20344;SDS011;10330;48.816;9.278;2024-03-08T01:35:29;31.40;;;14.20;;
20344;SDS011;10330;48.816;9.278;2024-03-08T01:37:56;30.05;;;15.27;;
20344;SDS011;10330;48.816;9.278;2024-03-08T01:40:22;24.08;;;12.95;;
20344;SDS011;10330;48.816;9.278;2024-03-08T01:42:49;36.08;;;16.52;;
20344;SDS011;10330;48.816;9.278;2024-03-08T01:45:16;33.60;;;14.18;;
20344;SDS011;10330;48.816;9.278;2024-03-08T01:47:42;29.75;;;14.77;;
20344;SDS011;10330;48.816;9.278;2024-03-08T01:50:08;27.08;;;13.90;;
20344;SDS011;10330;48.816;9.278;2024-03-08T01:52:36;28.15;;;13.10;;
20344;SDS011;10330;48.816;9.278;2024-03-08T01:55:03;26.92;;;13.43;;
20344;SDS011;10330;48.816;9.278;2024-03-08T01:57:33;32.72;;;14.48;;
20344;SDS011;10330;48.816;9.278;2024-03-08T02:00:01;28.38;;;13.48;;
20344;SDS011;10330;48.816;9.278;2024-03-08T02:02:33;29.77;;;13.82;;
20344;SDS011;10330;48.816;9.278;2024-03-08T02:05:00;27.00;;;13.85;;
20344;SDS011;10330;48.816;9.278;2024-03-08T02:07:27;25.05;;;13.75;;
20344;SDS011;10330;48.816;9.278;2024-03-08T02:09:53;31.58;;;15.13;;
20344;SDS011;10330;48.816;9.278;2024-03-08T02:12:20;30.45;;;14.82;;
20344;SDS011;10330;48.816;9.278;2024-03-08T02:14:46;27.50;;;13.38;;
20344;SDS011;10330;48.816;9.278;2024-03-08T02:17:13;27.67;;;13.63;;
20344;SDS011;10330;48.816;9.278;2024-03-08T02:19:42;27.67;;;12.32;;
20344;SDS011;10330;48.816;9.278;2024-03-08T02:22:08;27.80;;;14.15;;
20344;SDS011;10330;48.816;9.278;2024-03-08T02:24:35;32.72;;;14.32;;
20344;SDS011;10330;48.816;9.278;2024-03-08T02:27:01;26.58;;;13.68;;
20344;SDS011;10330;48.816;9.278;2024-03-08T02:29:28;30.70;;;14.02;;
20344;SDS011;10330;48.816;9.278;2024-03-08T02:31:58;24.13;;;13.48;;
20344;SDS011;10330;48.816;9.278;2024-03-08T02:34:27;27.02;;;12.93;;
20344;SDS011;10330;48.816;9.278;2024-03-08T02:36:53;25.83;;;12.85;;
20344;SDS011;10330;48.816;9.278;2024-03-08T02:39:22;31.83;;;13.35;;
20344;SDS011;10330;48.816;9.278;2024-03-08T02:41:48;22.40;;;12.13;;
20344;SDS011;10330;48.816;9.278;2024-03-08T02:44:14;27.25;;;13.27;;
20344;SDS011;10330;48.816;9.278;2024-03-08T02:46:41;27.48;;;12.80;;
20344;SDS011;10330;48.816;9.278;2024-03-08T02:49:07;31.20;;;13.80;;
20344;SDS011;10330;48.816;9.278;2024-03-08T02:51:34;26.73;;;13.10;;
20344;SDS011;10330;48.816;9.278;2024-03-08T02:54:01;25.40;;;13.48;;
20344;SDS011;10330;48.816;9.278;2024-03-08T02:56:29;25.55;;;12.63;;
20344;SDS011;10330;48.816;9.278;2024-03-08T02:58:56;29.55;;;14.20;;
20344;SDS011;10330;48.816;9.278;2024-03-08T03:01:22;24.45;;;12.95;;
20344;SDS011;10330;48.816;9.278;2024-03-08T03:03:48;26.40;;;12.25;;
20344;SDS011;10330;48.816;9.278;2024-03-08T03:06:15;25.77;;;12.98;;
20344;SDS011;10330;48.816;9.278;2024-03-08T03:08:41;31.00;;;13.30;;
20344;SDS011;10330;48.816;9.278;2024-03-08T03:11:09;25.73;;;13.05;;
20344;SDS011;10330;48.816;9.278;2024-03-08T03:13:36;24.95;;;12.25;;
20344;SDS011;10330;48.816;9.278;2024-03-08T03:16:02;26.90;;;12.95;;
20344;SDS011;10330;48.816;9.278;2024-03-08T03:18:29;27.15;;;12.95;;
20344;SDS011;10330;48.816;9.278;2024-03-08T03:20:58;25.38;;;13.00;;
20344;SDS011;10330;48.816;9.278;2024-03-08T03:23:25;23.25;;;11.57;;
20344;SDS011;10330;48.816;9.278;2024-03-08T03:25:52;25.30;;;13.10;;
20344;SDS011;10330;48.816;9.278;2024-03-08T03:28:18;26.67;;;13.50;;
20344;SDS011;10330;48.816;9.278;2024-03-08T03:30:47;25.83;;;12.13;;
20344;SDS011;10330;48.816;9.278;2024-03-08T03:33:13;27.92;;;12.77;;
20344;SDS011;10330;48.816;9.278;2024-03-08T03:35:42;24.63;;;12.20;;
20344;SDS011;10330;48.816;9.278;2024-03-08T03:38:09;32.75;;;12.30;;
20344;SDS011;10330;48.816;9.278;2024-03-08T03:40:39;23.50;;;12.07;;
20344;SDS011;10330;48.816;9.278;2024-03-08T03:43:06;39.05;;;15.93;;
20344;SDS011;10330;48.816;9.278;2024-03-08T03:45:35;52.67;;;20.58;;
20344;SDS011;10330;48.816;9.278;2024-03-08T03:48:02;48.70;;;20.83;;
20344;SDS011;10330;48.816;9.278;2024-03-08T03:50:39;41.00;;;17.27;;
20344;SDS011;10330;48.816;9.278;2024-03-08T03:53:09;45.75;;;18.75;;
20344;SDS011;10330;48.816;9.278;2024-03-08T03:55:46;40.47;;;16.35;;
20344;SDS011;10330;48.816;9.278;2024-03-08T03:58:13;28.10;;;13.85;;
20344;SDS011;10330;48.816;9.278;2024-03-08T04:00:42;29.63;;;12.63;;
20344;SDS011;10330;48.816;9.278;2024-03-08T04:03:08;23.27;;;11.95;;
20344;SDS011;10330;48.816;9.278;2024-03-08T04:05:35;26.63;;;12.27;;
20344;SDS011;10330;48.816;9.278;2024-03-08T04:08:01;23.02;;;11.23;;
20344;SDS011;10330;48.816;9.278;2024-03-08T04:10:28;23.98;;;11.73;;
20344;SDS011;10330;48.816;9.278;2024-03-08T04:12:55;26.00;;;12.88;;
20344;SDS011;10330;48.816;9.278;2024-03-08T04:15:22;27.48;;;12.85;;
20344;SDS011;10330;48.816;9.278;2024-03-08T04:17:51;25.63;;;12.60;;
20344;SDS011;10330;48.816;9.278;2024-03-08T04:20:18;28.30;;;12.35;;
20344;SDS011;10330;48.816;9.278;2024-03-08T04:22:44;28.00;;;12.57;;
20344;SDS011;10330;48.816;9.278;2024-03-08T04:25:17;28.17;;;13.38;;
20344;SDS011;10330;48.816;9.278;2024-03-08T04:27:46;29.00;;;12.35;;
20344;SDS011;10330;48.816;9.278;2024-03-08T04:30:18;24.95;;;12.43;;
20344;SDS011;10330;48.816;9.278;2024-03-08T04:32:44;27.20;;;12.32;;
20344;SDS011;10330;48.816;9.278;2024-03-08T04:35:10;25.05;;;12.55;;
20344;SDS011;10330;48.816;9.278;2024-03-08T04:37:38;32.47;;;14.00;;
20344;SDS011;10330;48.816;9.278;2024-03-08T04:40:05;24.40;;;13.32;;
20344;SDS011;10330;48.816;9.278;2024-03-08T04:42:34;30.50;;;14.52;;
20344;SDS011;10330;48.816;9.278;2024-03-08T04:45:02;26.02;;;13.27;;
20344;SDS011;10330;48.816;9.278;2024-03-08T04:47:32;31.27;;;15.00;;
20344;SDS011;10330;48.816;9.278;2024-03-08T04:49:59;30.50;;;14.63;;
20344;SDS011;10330;48.816;9.278;2024-03-08T04:52:25;26.77;;;12.98;;
20344;SDS011;10330;48.816;9.278;2024-03-08T04:54:51;25.00;;;12.32;;
20344;SDS011;10330;48.816;9.278;2024-03-08T04:57:18;30.33;;;13.57;;
20344;SDS011;10330;48.816;9.278;2024-03-08T04:59:44;25.75;;;12.45;;
20344;SDS011;10330;48.816;9.278;2024-03-08T05:02:11;27.65;;;13.18;;
20344;SDS011;10330;48.816;9.278;2024-03-08T05:04:37;29.33;;;13.73;;
20344;SDS011;10330;48.816;9.278;2024-03-08T05:07:04;31.77;;;14.13;;
20344;SDS011;10330;48.816;9.278;2024-03-08T05:09:30;25.50;;;13.25;;
20344;SDS011;10330;48.816;9.278;2024-03-08T05:11:57;35.65;;;14.30;;
20344;SDS011;10330;48.816;9.278;2024-03-08T05:14:24;29.52;;;13.60;;
20344;SDS011;10330;48.816;9.278;2024-03-08T05:16:51;29.85;;;14.38;;
20344;SDS011;10330;48.816;9.278;2024-03-08T05:19:18;26.70;;;14.05;;
20344;SDS011;10330;48.816;9.278;2024-03-08T05:21:49;28.08;;;14.00;;
20344;SDS011;10330;48.816;9.278;2024-03-08T05:24:16;30.33;;;15.18;;
20344;SDS011;10330;48.816;9.278;2024-03-08T05:26:43;30.30;;;13.85;;
20344;SDS011;10330;48.816;9.278;2024-03-08T05:29:12;31.40;;;14.48;;
20344;SDS011;10330;48.816;9.278;2024-03-08T05:31:49;27.90;;;14.30;;
20344;SDS011;10330;48.816;9.278;2024-03-08T05:34:18;37.45;;;15.57;;
20344;SDS011;10330;48.816;9.278;2024-03-08T05:36:50;25.38;;;13.45;;
20344;SDS011;10330;48.816;9.278;2024-03-08T05:39:17;26.45;;;13.43;;
20344;SDS011;10330;48.816;9.278;2024-03-08T05:41:44;35.47;;;14.70;;
20344;SDS011;10330;48.816;9.278;2024-03-08T05:44:13;29.27;;;14.52;;
20344;SDS011;10330;48.816;9.278;2024-03-08T05:46:40;35.08;;;15.63;;
20344;SDS011;10330;48.816;9.278;2024-03-08T05:49:06;32.95;;;16.40;;
20344;SDS011;10330;48.816;9.278;2024-03-08T05:51:38;36.53;;;18.05;;
20344;SDS011;10330;48.816;9.278;2024-03-08T05:54:07;47.03;;;22.88;;
20344;SDS011;10330;48.816;9.278;2024-03-08T05:56:38;31.75;;;16.25;;
20344;SDS011;10330;48.816;9.278;2024-03-08T05:59:07;30.02;;;14.48;;
20344;SDS011;10330;48.816;9.278;2024-03-08T06:01:34;35.05;;;17.00;;
20344;SDS011;10330;48.816;9.278;2024-03-08T06:04:02;32.10;;;14.70;;
20344;SDS011;10330;48.816;9.278;2024-03-08T06:06:29;33.78;;;15.32;;
20344;SDS011;10330;48.816;9.278;2024-03-08T06:08:55;35.90;;;15.80;;
20344;SDS011;10330;48.816;9.278;2024-03-08T06:11:25;28.35;;;14.02;;
20344;SDS011;10330;48.816;9.278;2024-03-08T06:13:56;32.08;;;15.55;;
20344;SDS011;10330;48.816;9.278;2024-03-08T06:16:26;28.60;;;14.60;;
20344;SDS011;10330;48.816;9.278;2024-03-08T06:18:58;31.92;;;15.70;;
20344;SDS011;10330;48.816;9.278;2024-03-08T06:21:28;36.65;;;16.70;;
20344;SDS011;10330;48.816;9.278;2024-03-08T06:23:54;32.88;;;16.45;;
20344;SDS011;10330;48.816;9.278;2024-03-08T06:26:21;30.73;;;14.60;;
20344;SDS011;10330;48.816;9.278;2024-03-08T06:29:00;33.17;;;15.75;;
20344;SDS011;10330;48.816;9.278;2024-03-08T06:31:26;39.20;;;18.60;;
20344;SDS011;10330;48.816;9.278;2024-03-08T06:33:52;36.80;;;17.38;;
20344;SDS011;10330;48.816;9.278;2024-03-08T06:36:21;32.95;;;15.68;;
20344;SDS011;10330;48.816;9.278;2024-03-08T06:38:50;30.20;;;15.65;;
20344;SDS011;10330;48.816;9.278;2024-03-08T06:41:18;37.53;;;15.90;;
20344;SDS011;10330;48.816;9.278;2024-03-08T06:43:47;28.90;;;14.90;;
20344;SDS011;10330;48.816;9.278;2024-03-08T06:46:21;37.30;;;15.90;;
20344;SDS011;10330;48.816;9.278;2024-03-08T06:48:48;28.70;;;13.85;;
20344;SDS011;10330;48.816;9.278;2024-03-08T06:51:14;35.63;;;16.30;;
20344;SDS011;10330;48.816;9.278;2024-03-08T06:53:41;28.45;;;15.38;;
20344;SDS011;10330;48.816;9.278;2024-03-08T06:56:07;36.25;;;16.05;;
20344;SDS011;10330;48.816;9.278;2024-03-08T06:58:33;28.20;;;15.15;;
20344;SDS011;10330;48.816;9.278;2024-03-08T07:01:00;29.67;;;15.40;;
20344;SDS011;10330;48.816;9.278;2024-03-08T07:03:29;34.85;;;15.43;;
20344;SDS011;10330;48.816;9.278;2024-03-08T07:05:56;32.13;;;14.38;;
20344;SDS011;10330;48.816;9.278;2024-03-08T07:08:24;25.40;;;12.65;;
20344;SDS011;10330;48.816;9.278;2024-03-08T07:10:53;29.10;;;13.98;;
20344;SDS011;10330;48.816;9.278;2024-03-08T07:13:23;26.92;;;14.27;;
20344;SDS011;10330;48.816;9.278;2024-03-08T07:15:50;29.52;;;15.10;;
20344;SDS011;10330;48.816;9.278;2024-03-08T07:18:17;29.77;;;14.00;;
20344;SDS011;10330;48.816;9.278;2024-03-08T07:20:44;26.65;;;13.75;;
20344;SDS011;10330;48.816;9.278;2024-03-08T07:23:12;31.60;;;14.02;;
20344;SDS011;10330;48.816;9.278;2024-03-08T07:25:58;36.35;;;14.50;;
20344;SDS011;10330;48.816;9.278;2024-03-08T07:28:26;29.08;;;13.65;;
20344;SDS011;10330;48.816;9.278;2024-03-08T07:30:53;31.30;;;14.07;;
20344;SDS011;10330;48.816;9.278;2024-03-08T07:33:33;26.83;;;14.07;;
20344;SDS011;10330;48.816;9.278;2024-03-08T07:36:00;29.67;;;15.82;;
20344;SDS011;10330;48.816;9.278;2024-03-08T07:38:26;28.77;;;14.18;;
20344;SDS011;10330;48.816;9.278;2024-03-08T07:40:53;26.63;;;13.40;;
20344;SDS011;10330;48.816;9.278;2024-03-08T07:43:19;28.73;;;13.98;;
20344;SDS011;10330;48.816;9.278;2024-03-08T07:45:46;26.30;;;12.73;;
20344;SDS011;10330;48.816;9.278;2024-03-08T07:48:15;30.67;;;14.30;;
20344;SDS011;10330;48.816;9.278;2024-03-08T07:50:47;28.33;;;13.95;;
20344;SDS011;10330;48.816;9.278;2024-03-08T07:53:18;30.83;;;14.68;;
20344;SDS011;10330;48.816;9.278;2024-03-08T07:55:50;25.88;;;13.55;;
20344;SDS011;10330;48.816;9.278;2024-03-08T07:58:20;26.23;;;13.13;;
20344;SDS011;10330;48.816;9.278;2024-03-08T08:00:47;30.02;;;13.10;;
20344;SDS011;10330;48.816;9.278;2024-03-08T08:03:13;23.38;;;12.43;;
20344;SDS011;10330;48.816;9.278;2024-03-08T08:05:39;32.70;;;14.52;;
20344;SDS011;10330;48.816;9.278;2024-03-08T08:08:07;29.02;;;13.27;;
20344;SDS011;10330;48.816;9.278;2024-03-08T08:10:36;26.17;;;13.20;;
20344;SDS011;10330;48.816;9.278;2024-03-08T08:13:09;27.20;;;12.15;;
20344;SDS011;10330;48.816;9.278;2024-03-08T08:15:35;25.48;;;13.23;;
20344;SDS011;10330;48.816;9.278;2024-03-08T08:18:02;25.85;;;13.18;;
20344;SDS011;10330;48.816;9.278;2024-03-08T08:20:31;34.75;;;15.63;;
20344;SDS011;10330;48.816;9.278;2024-03-08T08:22:57;26.38;;;13.15;;
20344;SDS011;10330;48.816;9.278;2024-03-08T08:25:24;25.38;;;13.82;;
20344;SDS011;10330;48.816;9.278;2024-03-08T08:27:51;26.33;;;13.50;;
20344;SDS011;10330;48.816;9.278;2024-03-08T08:30:19;30.92;;;13.75;;
20344;SDS011;10330;48.816;9.278;2024-03-08T08:32:46;29.08;;;13.73;;
20344;SDS011;10330;48.816;9.278;2024-03-08T08:35:15;25.48;;;13.05;;
20344;SDS011;10330;48.816;9.278;2024-03-08T08:37:42;27.05;;;13.05;;
20344;SDS011;10330;48.816;9.278;2024-03-08T08:40:10;22.17;;;12.20;;
20344;SDS011;10330;48.816;9.278;2024-03-08T08:42:40;25.35;;;12.88;;
20344;SDS011;10330;48.816;9.278;2024-03-08T08:45:08;26.38;;;11.98;;
20344;SDS011;10330;48.816;9.278;2024-03-08T08:47:35;30.17;;;13.02;;
20344;SDS011;10330;48.816;9.278;2024-03-08T08:50:02;25.90;;;13.43;;
20344;SDS011;10330;48.816;9.278;2024-03-08T08:52:32;23.48;;;12.82;;
20344;SDS011;10330;48.816;9.278;2024-03-08T08:57:32;27.10;;;13.50;;
20344;SDS011;10330;48.816;9.278;2024-03-08T08:59:59;27.30;;;13.30;;
20344;SDS011;10330;48.816;9.278;2024-03-08T09:02:26;26.77;;;12.90;;
20344;SDS011;10330;48.816;9.278;2024-03-08T09:04:52;24.85;;;14.32;;
20344;SDS011;10330;48.816;9.278;2024-03-08T09:07:18;23.45;;;12.52;;
20344;SDS011;10330;48.816;9.278;2024-03-08T09:09:45;26.15;;;12.80;;
20344;SDS011;10330;48.816;9.278;2024-03-08T09:12:11;27.98;;;13.40;;
20344;SDS011;10330;48.816;9.278;2024-03-08T09:14:39;25.40;;;11.63;;
20344;SDS011;10330;48.816;9.278;2024-03-08T09:17:07;26.02;;;12.18;;
20344;SDS011;10330;48.816;9.278;2024-03-08T09:19:37;29.05;;;12.85;;
20344;SDS011;10330;48.816;9.278;2024-03-08T09:22:04;26.30;;;12.75;;
20344;SDS011;10330;48.816;9.278;2024-03-08T09:24:33;28.95;;;12.48;;
20344;SDS011;10330;48.816;9.278;2024-03-08T09:27:03;23.88;;;12.45;;
20344;SDS011;10330;48.816;9.278;2024-03-08T09:29:29;23.73;;;11.68;;
20344;SDS011;10330;48.816;9.278;2024-03-08T09:31:56;28.92;;;13.07;;
20344;SDS011;10330;48.816;9.278;2024-03-08T09:34:22;23.65;;;12.15;;
20344;SDS011;10330;48.816;9.278;2024-03-08T09:36:49;24.50;;;12.15;;
20344;SDS011;10330;48.816;9.278;2024-03-08T09:39:35;24.92;;;11.82;;
20344;SDS011;10330;48.816;9.278;2024-03-08T09:42:02;26.08;;;11.90;;
20344;SDS011;10330;48.816;9.278;2024-03-08T09:44:31;21.40;;;11.27;;
20344;SDS011;10330;48.816;9.278;2024-03-08T09:46:59;34.97;;;15.45;;
20344;SDS011;10330;48.816;9.278;2024-03-08T09:49:27;29.10;;;14.35;;
20344;SDS011;10330;48.816;9.278;2024-03-08T09:54:58;33.53;;;13.38;;
20344;SDS011;10330;48.816;9.278;2024-03-08T09:57:26;30.85;;;14.48;;
20344;SDS011;10330;48.816;9.278;2024-03-08T09:59:53;25.95;;;12.30;;
20344;SDS011;10330;48.816;9.278;2024-03-08T10:02:22;33.80;;;14.98;;
20344;SDS011;10330;48.816;9.278;2024-03-08T10:04:50;28.10;;;13.63;;
20344;SDS011;10330;48.816;9.278;2024-03-08T10:07:19;26.67;;;13.05;;
20344;SDS011;10330;48.816;9.278;2024-03-08T10:09:45;30.75;;;13.35;;
20344;SDS011;10330;48.816;9.278;2024-03-08T10:12:16;26.92;;;12.98;;
20344;SDS011;10330;48.816;9.278;2024-03-08T10:14:48;24.45;;;11.93;;
20344;SDS011;10330;48.816;9.278;2024-03-08T10:24:10;23.90;;;12.35;;
20344;SDS011;10330;48.816;9.278;2024-03-08T10:26:39;22.70;;;11.18;;
20344;SDS011;10330;48.816;9.278;2024-03-08T10:33:27;28.45;;;13.25;;
20344;SDS011;10330;48.816;9.278;2024-03-08T10:35:54;26.75;;;13.70;;
20344;SDS011;10330;48.816;9.278;2024-03-08T10:38:24;31.90;;;12.95;;
20344;SDS011;10330;48.816;9.278;2024-03-08T10:40:55;23.40;;;11.98;;
20344;SDS011;10330;48.816;9.278;2024-03-08T10:43:23;31.65;;;12.38;;
20344;SDS011;10330;48.816;9.278;2024-03-08T10:45:53;24.73;;;12.10;;
20344;SDS011;10330;48.816;9.278;2024-03-08T10:48:38;22.58;;;12.77;;
20344;SDS011;10330;48.816;9.278;2024-03-08T10:51:11;29.60;;;12.52;;
20344;SDS011;10330;48.816;9.278;2024-03-08T10:53:37;28.83;;;13.32;;
20344;SDS011;10330;48.816;9.278;2024-03-08T10:56:07;35.00;;;14.98;;
20344;SDS011;10330;48.816;9.278;2024-03-08T10:58:35;25.73;;;12.07;;
20344;SDS011;10330;48.816;9.278;2024-03-08T11:01:05;25.15;;;13.18;;
20344;SDS011;10330;48.816;9.278;2024-03-08T11:06:13;30.02;;;12.75;;
20344;SDS011;10330;48.816;9.278;2024-03-08T11:08:45;25.35;;;12.73;;
20344;SDS011;10330;48.816;9.278;2024-03-08T11:11:35;29.92;;;14.82;;
20344;SDS011;10330;48.816;9.278;2024-03-08T11:14:02;26.88;;;12.35;;
20344;SDS011;10330;48.816;9.278;2024-03-08T11:19:01;23.88;;;12.98;;
20344;SDS011;10330;48.816;9.278;2024-03-08T11:21:59;25.70;;;12.90;;
20344;SDS011;10330;48.816;9.278;2024-03-08T11:24:26;25.73;;;13.50;;
20344;SDS011;10330;48.816;9.278;2024-03-08T11:26:58;25.65;;;12.48;;
20344;SDS011;10330;48.816;9.278;2024-03-08T11:32:12;26.92;;;12.60;;
20344;SDS011;10330;48.816;9.278;2024-03-08T11:34:42;30.20;;;13.85;;
20344;SDS011;10330;48.816;9.278;2024-03-08T11:37:16;30.20;;;12.57;;
20344;SDS011;10330;48.816;9.278;2024-03-08T11:39:50;28.08;;;13.07;;
20344;SDS011;10330;48.816;9.278;2024-03-08T11:42:18;26.20;;;12.30;;
20344;SDS011;10330;48.816;9.278;2024-03-08T11:44:45;25.70;;;12.38;;
20344;SDS011;10330;48.816;9.278;2024-03-08T11:47:20;29.15;;;13.25;;
20344;SDS011;10330;48.816;9.278;2024-03-08T11:49:57;31.55;;;15.07;;
20344;SDS011;10330;48.816;9.278;2024-03-08T11:52:32;26.15;;;12.68;;
20344;SDS011;10330;48.816;9.278;2024-03-08T11:54:58;22.42;;;12.55;;
20344;SDS011;10330;48.816;9.278;2024-03-08T11:57:25;24.90;;;12.63;;
20344;SDS011;10330;48.816;9.278;2024-03-08T11:59:52;24.85;;;12.43;;
20344;SDS011;10330;48.816;9.278;2024-03-08T12:02:22;29.83;;;14.02;;
20344;SDS011;10330;48.816;9.278;2024-03-08T12:04:58;23.67;;;13.02;;
20344;SDS011;10330;48.816;9.278;2024-03-08T12:07:44;27.90;;;13.00;;
20344;SDS011;10330;48.816;9.278;2024-03-08T12:11:22;31.23;;;12.63;;
20344;SDS011;10330;48.816;9.278;2024-03-08T12:13:49;24.20;;;12.43;;
20344;SDS011;10330;48.816;9.278;2024-03-08T12:16:17;24.50;;;12.85;;
20344;SDS011;10330;48.816;9.278;2024-03-08T12:18:44;23.75;;;12.10;;
20344;SDS011;10330;48.816;9.278;2024-03-08T12:21:11;30.65;;;13.20;;
20344;SDS011;10330;48.816;9.278;2024-03-08T12:23:46;23.33;;;12.43;;
20344;SDS011;10330;48.816;9.278;2024-03-08T12:26:22;24.08;;;12.00;;
20344;SDS011;10330;48.816;9.278;2024-03-08T12:28:52;27.67;;;13.23;;
20344;SDS011;10330;48.816;9.278;2024-03-08T12:31:21;23.75;;;12.55;;
20344;SDS011;10330;48.816;9.278;2024-03-08T12:37:49;26.13;;;12.45;;
20344;SDS011;10330;48.816;9.278;2024-03-08T12:40:25;23.85;;;11.90;;
20344;SDS011;10330;48.816;9.278;2024-03-08T12:43:07;23.95;;;13.95;;
20344;SDS011;10330;48.816;9.278;2024-03-08T12:45:34;25.92;;;13.20;;
20344;SDS011;10330;48.816;9.278;2024-03-08T12:48:00;24.95;;;13.45;;
20344;SDS011;10330;48.816;9.278;2024-03-08T12:50:29;25.15;;;13.45;;
20344;SDS011;10330;48.816;9.278;2024-03-08T12:52:55;25.17;;;13.52;;
20344;SDS011;10330;48.816;9.278;2024-03-08T12:55:25;25.45;;;13.05;;
20344;SDS011;10330;48.816;9.278;2024-03-08T12:57:51;26.95;;;12.95;;
20344;SDS011;10330;48.816;9.278;2024-03-08T13:00:18;27.95;;;13.98;;
20344;SDS011;10330;48.816;9.278;2024-03-08T13:02:47;27.50;;;13.98;;
20344;SDS011;10330;48.816;9.278;2024-03-08T13:05:15;27.77;;;15.30;;
20344;SDS011;10330;48.816;9.278;2024-03-08T13:07:47;23.05;;;13.07;;
20344;SDS011;10330;48.816;9.278;2024-03-08T13:10:13;27.90;;;14.13;;
20344;SDS011;10330;48.816;9.278;2024-03-08T13:12:46;23.80;;;12.98;;
20344;SDS011;10330;48.816;9.278;2024-03-08T13:15:12;23.13;;;14.15;;
20344;SDS011;10330;48.816;9.278;2024-03-08T13:17:47;23.35;;;13.30;;
20344;SDS011;10330;48.816;9.278;2024-03-08T13:20:14;25.27;;;13.00;;
20344;SDS011;10330;48.816;9.278;2024-03-08T13:22:47;21.33;;;12.98;;
20344;SDS011;10330;48.816;9.278;2024-03-08T13:25:14;25.35;;;13.13;;
20344;SDS011;10330;48.816;9.278;2024-03-08T13:27:41;24.15;;;13.23;;
20344;SDS011;10330;48.816;9.278;2024-03-08T13:30:08;23.95;;;13.48;;
20344;SDS011;10330;48.816;9.278;2024-03-08T13:32:40;25.58;;;13.55;;
20344;SDS011;10330;48.816;9.278;2024-03-08T13:35:09;23.73;;;13.63;;
20344;SDS011;10330;48.816;9.278;2024-03-08T13:37:41;24.92;;;14.68;;
20344;SDS011;10330;48.816;9.278;2024-03-08T13:40:09;23.67;;;13.73;;
20344;SDS011;10330;48.816;9.278;2024-03-08T13:42:56;27.60;;;14.63;;
20344;SDS011;10330;48.816;9.278;2024-03-08T13:45:24;29.38;;;14.77;;
20344;SDS011;10330;48.816;9.278;2024-03-08T13:47:53;24.05;;;13.82;;
20344;SDS011;10330;48.816;9.278;2024-03-08T13:50:22;26.70;;;13.43;;
20344;SDS011;10330;48.816;9.278;2024-03-08T13:52:57;31.02;;;15.82;;
20344;SDS011;10330;48.816;9.278;2024-03-08T13:55:27;28.02;;;14.13;;
20344;SDS011;10330;48.816;9.278;2024-03-08T13:58:06;24.85;;;13.48;;
20344;SDS011;10330;48.816;9.278;2024-03-08T14:00:40;21.70;;;12.52;;
20344;SDS011;10330;48.816;9.278;2024-03-08T14:03:09;25.70;;;13.23;;
20344;SDS011;10330;48.816;9.278;2024-03-08T14:05:41;21.65;;;11.98;;
20344;SDS011;10330;48.816;9.278;2024-03-08T14:08:11;24.00;;;12.57;;
20344;SDS011;10330;48.816;9.278;2024-03-08T14:10:38;21.60;;;12.13;;
20344;SDS011;10330;48.816;9.278;2024-03-08T14:13:30;25.63;;;13.25;;
20344;SDS011;10330;48.816;9.278;2024-03-08T14:15:59;22.67;;;12.70;;
20344;SDS011;10330;48.816;9.278;2024-03-08T14:18:28;27.55;;;13.50;;
20344;SDS011;10330;48.816;9.278;2024-03-08T14:21:00;25.40;;;13.70;;
20344;SDS011;10330;48.816;9.278;2024-03-08T14:23:27;25.75;;;14.90;;
20344;SDS011;10330;48.816;9.278;2024-03-08T14:25:59;21.23;;;12.35;;
20344;SDS011;10330;48.816;9.278;2024-03-08T14:28:26;26.00;;;13.10;;
20344;SDS011;10330;48.816;9.278;2024-03-08T14:31:15;23.83;;;13.60;;
20344;SDS011;10330;48.816;9.278;2024-03-08T14:33:44;22.48;;;12.65;;
20344;SDS011;10330;48.816;9.278;2024-03-08T14:36:15;25.15;;;13.43;;
20344;SDS011;10330;48.816;9.278;2024-03-08T14:38:47;25.48;;;14.32;;
20344;SDS011;10330;48.816;9.278;2024-03-08T14:41:14;34.65;;;16.27;;
20344;SDS011;10330;48.816;9.278;2024-03-08T14:43:43;29.13;;;14.48;;
20344;SDS011;10330;48.816;9.278;2024-03-08T14:46:15;23.73;;;13.43;;
20344;SDS011;10330;48.816;9.278;2024-03-08T14:48:46;26.90;;;14.85;;
20344;SDS011;10330;48.816;9.278;2024-03-08T14:51:18;28.00;;;13.55;;
20344;SDS011;10330;48.816;9.278;2024-03-08T14:53:51;25.98;;;13.38;;
20344;SDS011;10330;48.816;9.278;2024-03-08T14:56:18;22.23;;;12.65;;
20344;SDS011;10330;48.816;9.278;2024-03-08T14:58:45;19.30;;;12.27;;
20344;SDS011;10330;48.816;9.278;2024-03-08T15:01:18;25.35;;;12.65;;